PDG64 EGCM-EGCB
Flight info
| Callsign | PDG64 |
|---|---|
| Flight time | 0h 55m |
| Altitude | 1500 |
| Route | FILMING |
| Aircraft | AS55/L-VGD/A |
Departure
| Time | 2026-04-11 15:34 |
|---|---|
| Airport | Leeds East Airport (EGCM) |
Arrival
| Time | 2026-04-11 16:29 |
|---|---|
| Airport | Manchester Barton Aerodrome (EGCB) |
| Time | Latitude | Longitude | Altitude | Speed | Heading |
|---|---|---|---|---|---|
| 2026-04-11 15:32 | 53.83549 | -1.19740 | 27 ft | 0 kts | 179° |
| 2026-04-11 15:33 | 53.83549 | -1.19720 | 34 ft | 10 kts | 166° |
| 2026-04-11 15:33 | 53.83295 | -1.19884 | 46 ft | 78 kts | 231° |
| 2026-04-11 15:34 | 53.82984 | -1.20585 | 497 ft | 56 kts | 219° |
| 2026-04-11 15:34 | 53.82691 | -1.21263 | 691 ft | 86 kts | 234° |
| 2026-04-11 15:34 | 53.82395 | -1.22181 | 933 ft | 90 kts | 236° |
| 2026-04-11 15:34 | 53.82072 | -1.23200 | 938 ft | 107 kts | 236° |
| 2026-04-11 15:35 | 53.81705 | -1.24401 | 926 ft | 120 kts | 239° |
| 2026-04-11 15:35 | 53.81317 | -1.25679 | 920 ft | 124 kts | 240° |
| 2026-04-11 15:35 | 53.80914 | -1.27010 | 919 ft | 130 kts | 239° |
| 2026-04-11 15:35 | 53.80508 | -1.28363 | 915 ft | 129 kts | 239° |
| 2026-04-11 15:36 | 53.80120 | -1.29724 | 918 ft | 127 kts | 239° |
| 2026-04-11 15:36 | 53.79753 | -1.31071 | 917 ft | 127 kts | 242° |
| 2026-04-11 15:36 | 53.79393 | -1.32420 | 919 ft | 126 kts | 240° |
| 2026-04-11 15:36 | 53.79019 | -1.33776 | 920 ft | 129 kts | 241° |
| 2026-04-11 15:37 | 53.78623 | -1.35125 | 915 ft | 127 kts | 239° |
| 2026-04-11 15:37 | 53.78227 | -1.36459 | 919 ft | 127 kts | 240° |
| 2026-04-11 15:37 | 53.77830 | -1.37809 | 922 ft | 130 kts | 240° |
| 2026-04-11 15:37 | 53.77422 | -1.39200 | 918 ft | 133 kts | 240° |
| 2026-04-11 15:38 | 53.77020 | -1.40602 | 915 ft | 131 kts | 240° |
| 2026-04-11 15:38 | 53.76627 | -1.41999 | 920 ft | 133 kts | 240° |
| 2026-04-11 15:38 | 53.76228 | -1.43401 | 922 ft | 131 kts | 239° |
| 2026-04-11 15:38 | 53.75852 | -1.44786 | 910 ft | 129 kts | 242° |
| 2026-04-11 15:39 | 53.75489 | -1.46133 | 921 ft | 126 kts | 243° |
| 2026-04-11 15:39 | 53.75096 | -1.47509 | 918 ft | 131 kts | 239° |
| 2026-04-11 15:39 | 53.74703 | -1.48886 | 913 ft | 130 kts | 240° |
| 2026-04-11 15:39 | 53.74322 | -1.50256 | 919 ft | 126 kts | 240° |
| 2026-04-11 15:40 | 53.73965 | -1.51582 | 914 ft | 125 kts | 240° |
| 2026-04-11 15:40 | 53.73606 | -1.52938 | 916 ft | 126 kts | 241° |
| 2026-04-11 15:40 | 53.73249 | -1.54264 | 915 ft | 124 kts | 240° |
| 2026-04-11 15:40 | 53.72893 | -1.55573 | 913 ft | 121 kts | 240° |
| 2026-04-11 15:41 | 53.72540 | -1.56863 | 921 ft | 123 kts | 240° |
| 2026-04-11 15:41 | 53.72164 | -1.58199 | 920 ft | 128 kts | 240° |
| 2026-04-11 15:41 | 53.71783 | -1.59550 | 917 ft | 127 kts | 240° |
| 2026-04-11 15:41 | 53.71408 | -1.60892 | 912 ft | 128 kts | 241° |
| 2026-04-11 15:42 | 53.71004 | -1.62287 | 924 ft | 136 kts | 241° |
| 2026-04-11 15:42 | 53.70575 | -1.63728 | 914 ft | 138 kts | 241° |
| 2026-04-11 15:42 | 53.70157 | -1.65159 | 915 ft | 134 kts | 239° |
| 2026-04-11 15:43 | 53.69360 | -1.67982 | 916 ft | 136 kts | 240° |
| 2026-04-11 15:43 | 53.68972 | -1.69406 | 921 ft | 133 kts | 240° |
| 2026-04-11 15:43 | 53.68576 | -1.70844 | 921 ft | 137 kts | 240° |
| 2026-04-11 15:43 | 53.68167 | -1.72311 | 917 ft | 138 kts | 240° |
| 2026-04-11 15:44 | 53.67762 | -1.73766 | 920 ft | 136 kts | 241° |
| 2026-04-11 15:44 | 53.67351 | -1.75211 | 920 ft | 137 kts | 240° |
| 2026-04-11 15:44 | 53.66951 | -1.76664 | 923 ft | 134 kts | 240° |
| 2026-04-11 15:44 | 53.66570 | -1.78097 | 918 ft | 133 kts | 240° |
| 2026-04-11 15:45 | 53.66205 | -1.79495 | 924 ft | 130 kts | 240° |
| 2026-04-11 15:45 | 53.65845 | -1.80883 | 923 ft | 126 kts | 240° |
| 2026-04-11 15:45 | 53.65507 | -1.82215 | 928 ft | 124 kts | 242° |
| 2026-04-11 15:45 | 53.65140 | -1.83566 | 930 ft | 128 kts | 238° |
| 2026-04-11 15:46 | 53.64764 | -1.84962 | 963 ft | 132 kts | 241° |
| 2026-04-11 15:46 | 53.64415 | -1.86308 | 1054 ft | 117 kts | 239° |
| 2026-04-11 15:46 | 53.64179 | -1.87450 | 1621 ft | 92 kts | 242° |
| 2026-04-11 15:46 | 53.64014 | -1.88430 | 2091 ft | 88 kts | 242° |
| 2026-04-11 15:47 | 53.63802 | -1.89503 | 2092 ft | 104 kts | 241° |
| 2026-04-11 15:47 | 53.63550 | -1.90684 | 2085 ft | 111 kts | 241° |
| 2026-04-11 15:47 | 53.63279 | -1.91941 | 2080 ft | 117 kts | 241° |
| 2026-04-11 15:47 | 53.63000 | -1.93233 | 2079 ft | 118 kts | 241° |
| 2026-04-11 15:48 | 53.62725 | -1.94517 | 2077 ft | 115 kts | 241° |
| 2026-04-11 15:48 | 53.62467 | -1.95766 | 2079 ft | 111 kts | 241° |
| 2026-04-11 15:48 | 53.62216 | -1.97002 | 2083 ft | 113 kts | 242° |
| 2026-04-11 15:48 | 53.61952 | -1.98267 | 2089 ft | 117 kts | 242° |
| 2026-04-11 15:49 | 53.61657 | -1.99592 | 2070 ft | 122 kts | 242° |
| 2026-04-11 15:49 | 53.61360 | -2.00912 | 2077 ft | 120 kts | 241° |
| 2026-04-11 15:49 | 53.61054 | -2.02245 | 2078 ft | 123 kts | 241° |
| 2026-04-11 15:49 | 53.60749 | -2.03590 | 2073 ft | 122 kts | 240° |
| 2026-04-11 15:50 | 53.60458 | -2.04929 | 2073 ft | 121 kts | 242° |
| 2026-04-11 15:50 | 53.60178 | -2.06229 | 2079 ft | 117 kts | 242° |
| 2026-04-11 15:50 | 53.59905 | -2.07514 | 2082 ft | 118 kts | 242° |
| 2026-04-11 15:50 | 53.59623 | -2.08847 | 2080 ft | 123 kts | 242° |
| 2026-04-11 15:51 | 53.59342 | -2.10192 | 2074 ft | 120 kts | 242° |
| 2026-04-11 15:51 | 53.59070 | -2.11504 | 2081 ft | 120 kts | 242° |
| 2026-04-11 15:51 | 53.58789 | -2.12848 | 2077 ft | 123 kts | 242° |
| 2026-04-11 15:51 | 53.58506 | -2.14208 | 2073 ft | 123 kts | 243° |
| 2026-04-11 15:52 | 53.58214 | -2.15559 | 2077 ft | 124 kts | 242° |
| 2026-04-11 15:52 | 53.57911 | -2.16933 | 2067 ft | 126 kts | 241° |
| 2026-04-11 15:52 | 53.57610 | -2.18322 | 2062 ft | 127 kts | 242° |
| 2026-04-11 15:52 | 53.57387 | -2.19773 | 2058 ft | 129 kts | 249° |
| 2026-04-11 15:53 | 53.57252 | -2.21269 | 2053 ft | 129 kts | 252° |
| 2026-04-11 15:53 | 53.57155 | -2.22773 | 2054 ft | 129 kts | 253° |
| 2026-04-11 15:53 | 53.57067 | -2.24271 | 2053 ft | 128 kts | 253° |
| 2026-04-11 15:53 | 53.56967 | -2.25761 | 2055 ft | 129 kts | 253° |
| 2026-04-11 15:54 | 53.56853 | -2.27260 | 2055 ft | 129 kts | 252° |
| 2026-04-11 15:54 | 53.56739 | -2.28750 | 2050 ft | 129 kts | 252° |
| 2026-04-11 15:54 | 53.56622 | -2.30247 | 2047 ft | 129 kts | 252° |
| 2026-04-11 15:54 | 53.56508 | -2.31739 | 2049 ft | 129 kts | 252° |
| 2026-04-11 15:55 | 53.56395 | -2.33239 | 2049 ft | 130 kts | 252° |
| 2026-04-11 15:55 | 53.56283 | -2.34756 | 2048 ft | 130 kts | 252° |
| 2026-04-11 15:55 | 53.56171 | -2.36263 | 2048 ft | 129 kts | 252° |
| 2026-04-11 15:55 | 53.56019 | -2.37745 | 2049 ft | 128 kts | 248° |
| 2026-04-11 15:56 | 53.55779 | -2.39173 | 2049 ft | 126 kts | 243° |
| 2026-04-11 15:56 | 53.55493 | -2.40541 | 2049 ft | 123 kts | 241° |
| 2026-04-11 15:56 | 53.55198 | -2.41890 | 2049 ft | 123 kts | 240° |
| 2026-04-11 15:56 | 53.54910 | -2.43235 | 2047 ft | 122 kts | 241° |
| 2026-04-11 15:57 | 53.54625 | -2.44580 | 2050 ft | 122 kts | 241° |
| 2026-04-11 15:57 | 53.54348 | -2.45930 | 2048 ft | 122 kts | 242° |
| 2026-04-11 15:57 | 53.54072 | -2.47284 | 2048 ft | 123 kts | 242° |
| 2026-04-11 15:57 | 53.53805 | -2.48671 | 2033 ft | 126 kts | 245° |
| 2026-04-11 15:58 | 53.53584 | -2.50101 | 2032 ft | 127 kts | 247° |
| 2026-04-11 15:58 | 53.53384 | -2.51557 | 2031 ft | 128 kts | 248° |
| 2026-04-11 15:58 | 53.53192 | -2.53023 | 2034 ft | 128 kts | 248° |
| 2026-04-11 15:58 | 53.53009 | -2.54474 | 2029 ft | 125 kts | 248° |
| 2026-04-11 15:59 | 53.52836 | -2.55877 | 2031 ft | 123 kts | 248° |
| 2026-04-11 15:59 | 53.52664 | -2.57281 | 2033 ft | 123 kts | 248° |
| 2026-04-11 15:59 | 53.52487 | -2.58686 | 2058 ft | 123 kts | 247° |
| 2026-04-11 15:59 | 53.52311 | -2.60107 | 2045 ft | 125 kts | 248° |
| 2026-04-11 16:00 | 53.52134 | -2.61539 | 2037 ft | 125 kts | 248° |
| 2026-04-11 16:00 | 53.51957 | -2.62958 | 2035 ft | 124 kts | 248° |
| 2026-04-11 16:00 | 53.51779 | -2.64376 | 2044 ft | 124 kts | 248° |
| 2026-04-11 16:00 | 53.51602 | -2.65799 | 2044 ft | 125 kts | 248° |
| 2026-04-11 16:01 | 53.51428 | -2.67225 | 2039 ft | 123 kts | 248° |
| 2026-04-11 16:01 | 53.51256 | -2.68632 | 2044 ft | 123 kts | 248° |
| 2026-04-11 16:01 | 53.51080 | -2.70056 | 2029 ft | 125 kts | 248° |
| 2026-04-11 16:01 | 53.50905 | -2.71482 | 2029 ft | 124 kts | 248° |
| 2026-04-11 16:02 | 53.50698 | -2.72891 | 2034 ft | 125 kts | 244° |
| 2026-04-11 16:02 | 53.50442 | -2.74294 | 2028 ft | 125 kts | 243° |
| 2026-04-11 16:02 | 53.50172 | -2.75696 | 2027 ft | 123 kts | 242° |
| 2026-04-11 16:02 | 53.49953 | -2.77018 | 1493 ft | 113 kts | 251° |
| 2026-04-11 16:03 | 53.49842 | -2.78252 | 1044 ft | 98 kts | 244° |
| 2026-04-11 16:03 | 53.49568 | -2.79350 | 1041 ft | 106 kts | 235° |
| 2026-04-11 16:03 | 53.49208 | -2.80514 | 992 ft | 118 kts | 240° |
| 2026-04-11 16:03 | 53.48972 | -2.81835 | 1069 ft | 119 kts | 247° |
| 2026-04-11 16:04 | 53.48766 | -2.83192 | 1174 ft | 116 kts | 249° |
| 2026-04-11 16:04 | 53.48662 | -2.84517 | 1298 ft | 118 kts | 258° |
| 2026-04-11 16:04 | 53.48494 | -2.85921 | 1081 ft | 114 kts | 246° |
| 2026-04-11 16:04 | 53.48290 | -2.87073 | 1004 ft | 91 kts | 243° |
| 2026-04-11 16:05 | 53.48120 | -2.88041 | 869 ft | 88 kts | 258° |
| 2026-04-11 16:05 | 53.48119 | -2.88987 | 861 ft | 76 kts | 259° |
| 2026-04-11 16:05 | 53.48020 | -2.89841 | 829 ft | 70 kts | 243° |
| 2026-04-11 16:06 | 53.47726 | -2.91353 | 901 ft | 72 kts | 244° |
| 2026-04-11 16:06 | 53.47602 | -2.92156 | 909 ft | 71 kts | 246° |
| 2026-04-11 16:06 | 53.47541 | -2.92694 | 888 ft | 67 kts | 247° |
| 2026-04-11 16:06 | 53.47450 | -2.93368 | 954 ft | 54 kts | 246° |
| 2026-04-11 16:07 | 53.47428 | -2.94019 | 934 ft | 61 kts | 257° |
| 2026-04-11 16:07 | 53.47440 | -2.94690 | 970 ft | 59 kts | 260° |
| 2026-04-11 16:07 | 53.47802 | -2.94976 | 1012 ft | 87 kts | 45° |
| 2026-04-11 16:07 | 53.47961 | -2.94061 | 981 ft | 70 kts | 126° |
| 2026-04-11 16:08 | 53.47744 | -2.93574 | 982 ft | 45 kts | 183° |
| 2026-04-11 16:08 | 53.47511 | -2.93725 | 958 ft | 45 kts | 230° |
| 2026-04-11 16:08 | 53.47487 | -2.94367 | 917 ft | 71 kts | 282° |
| 2026-04-11 16:08 | 53.48031 | -2.94490 | 945 ft | 98 kts | 40° |
| 2026-04-11 16:09 | 53.48126 | -2.93645 | 908 ft | 62 kts | 159° |
| 2026-04-11 16:09 | 53.47746 | -2.93353 | 820 ft | 61 kts | 175° |
| 2026-04-11 16:09 | 53.47439 | -2.93534 | 825 ft | 54 kts | 238° |
| 2026-04-11 16:09 | 53.47495 | -2.94237 | 779 ft | 79 kts | 296° |
| 2026-04-11 16:10 | 53.48031 | -2.94252 | 753 ft | 92 kts | 75° |
| 2026-04-11 16:10 | 53.47827 | -2.93811 | 735 ft | 40 kts | 197° |
| 2026-04-11 16:10 | 53.47571 | -2.94119 | 625 ft | 50 kts | 230° |
| 2026-04-11 16:10 | 53.47519 | -2.94721 | 577 ft | 65 kts | 272° |
| 2026-04-11 16:11 | 53.47925 | -2.94969 | 629 ft | 73 kts | 37° |
| 2026-04-11 16:11 | 53.48092 | -2.94294 | 669 ft | 41 kts | 138° |
| 2026-04-11 16:11 | 53.47888 | -2.93965 | 637 ft | 49 kts | 172° |
| 2026-04-11 16:11 | 53.47551 | -2.93858 | 691 ft | 51 kts | 201° |
| 2026-04-11 16:12 | 53.47412 | -2.94438 | 728 ft | 78 kts | 272° |
| 2026-04-11 16:12 | 53.47982 | -2.94736 | 761 ft | 108 kts | 29° |
| 2026-04-11 16:12 | 53.47998 | -2.93808 | 728 ft | 76 kts | 155° |
| 2026-04-11 16:12 | 53.47529 | -2.93779 | 741 ft | 67 kts | 212° |
| 2026-04-11 16:13 | 53.47372 | -2.94527 | 776 ft | 82 kts | 266° |
| 2026-04-11 16:13 | 53.47936 | -2.94589 | 765 ft | 113 kts | 63° |
| 2026-04-11 16:13 | 53.47822 | -2.93649 | 789 ft | 73 kts | 166° |
| 2026-04-11 16:13 | 53.47419 | -2.93904 | 754 ft | 73 kts | 239° |
| 2026-04-11 16:14 | 53.47786 | -2.94653 | 708 ft | 120 kts | 348° |
| 2026-04-11 16:14 | 53.48011 | -2.93798 | 683 ft | 84 kts | 142° |
| 2026-04-11 16:14 | 53.47555 | -2.93725 | 669 ft | 66 kts | 212° |
| 2026-04-11 16:14 | 53.47372 | -2.94378 | 751 ft | 77 kts | 263° |
| 2026-04-11 16:15 | 53.47914 | -2.94671 | 745 ft | 115 kts | 38° |
| 2026-04-11 16:15 | 53.47983 | -2.93579 | 695 ft | 88 kts | 149° |
| 2026-04-11 16:15 | 53.47504 | -2.93683 | 703 ft | 75 kts | 224° |
| 2026-04-11 16:15 | 53.47542 | -2.94555 | 707 ft | 104 kts | 311° |
| 2026-04-11 16:16 | 53.48061 | -2.94004 | 677 ft | 98 kts | 109° |
| 2026-04-11 16:16 | 53.47639 | -2.93644 | 633 ft | 73 kts | 206° |
| 2026-04-11 16:16 | 53.47538 | -2.94435 | 617 ft | 96 kts | 292° |
| 2026-04-11 16:16 | 53.48063 | -2.94139 | 618 ft | 85 kts | 107° |
| 2026-04-11 16:17 | 53.47783 | -2.93822 | 584 ft | 52 kts | 196° |
| 2026-04-11 16:17 | 53.47486 | -2.94188 | 631 ft | 63 kts | 240° |
| 2026-04-11 16:17 | 53.47847 | -2.94749 | 638 ft | 96 kts | 7° |
| 2026-04-11 16:17 | 53.48004 | -2.93998 | 732 ft | 68 kts | 139° |
| 2026-04-11 16:18 | 53.47612 | -2.93770 | 756 ft | 62 kts | 202° |
| 2026-04-11 16:18 | 53.47414 | -2.94413 | 798 ft | 80 kts | 271° |
| 2026-04-11 16:18 | 53.47997 | -2.94578 | 829 ft | 112 kts | 50° |
| 2026-04-11 16:18 | 53.47854 | -2.93815 | 774 ft | 64 kts | 189° |
| 2026-04-11 16:19 | 53.47854 | -2.94295 | 794 ft | 106 kts | 10° |
| 2026-04-11 16:19 | 53.47973 | -2.93137 | 886 ft | 110 kts | 98° |
| 2026-04-11 16:19 | 53.47930 | -2.91863 | 1220 ft | 113 kts | 103° |
| 2026-04-11 16:19 | 53.48021 | -2.90451 | 1268 ft | 140 kts | 94° |
| 2026-04-11 16:20 | 53.48114 | -2.88778 | 1338 ft | 148 kts | 94° |
| 2026-04-11 16:20 | 53.48209 | -2.87002 | 1346 ft | 157 kts | 90° |
| 2026-04-11 16:20 | 53.48458 | -2.85181 | 1349 ft | 165 kts | 77° |
| 2026-04-11 16:20 | 53.48986 | -2.83428 | 1353 ft | 170 kts | 65° |
| 2026-04-11 16:21 | 53.49491 | -2.81657 | 1355 ft | 166 kts | 76° |
| 2026-04-11 16:21 | 53.49827 | -2.79828 | 1358 ft | 162 kts | 83° |
| 2026-04-11 16:21 | 53.50099 | -2.77989 | 1361 ft | 163 kts | 85° |
| 2026-04-11 16:21 | 53.50355 | -2.76122 | 1359 ft | 165 kts | 86° |
| 2026-04-11 16:22 | 53.50601 | -2.74246 | 1358 ft | 164 kts | 86° |
| 2026-04-11 16:22 | 53.50838 | -2.72359 | 1361 ft | 167 kts | 86° |
| 2026-04-11 16:22 | 53.50890 | -2.70505 | 1351 ft | 150 kts | 108° |
| 2026-04-11 16:22 | 53.50618 | -2.68866 | 1357 ft | 143 kts | 121° |
| 2026-04-11 16:23 | 53.50245 | -2.67338 | 1371 ft | 141 kts | 124° |
| 2026-04-11 16:23 | 53.49849 | -2.65825 | 1366 ft | 141 kts | 125° |
| 2026-04-11 16:23 | 53.49469 | -2.64313 | 1367 ft | 140 kts | 124° |
| 2026-04-11 16:23 | 53.49112 | -2.62786 | 1370 ft | 141 kts | 123° |
| 2026-04-11 16:24 | 53.48764 | -2.61231 | 1371 ft | 143 kts | 123° |
| 2026-04-11 16:24 | 53.48422 | -2.59660 | 1371 ft | 143 kts | 122° |
| 2026-04-11 16:24 | 53.48077 | -2.58079 | 1372 ft | 145 kts | 122° |
| 2026-04-11 16:24 | 53.47728 | -2.56499 | 1359 ft | 144 kts | 122° |
| 2026-04-11 16:25 | 53.47373 | -2.54925 | 1365 ft | 144 kts | 122° |
| 2026-04-11 16:25 | 53.47014 | -2.53360 | 1368 ft | 143 kts | 121° |
| 2026-04-11 16:25 | 53.46651 | -2.51802 | 1369 ft | 143 kts | 121° |
| 2026-04-11 16:25 | 53.46323 | -2.50251 | 1050 ft | 132 kts | 116° |
| 2026-04-11 16:26 | 53.46202 | -2.48792 | 902 ft | 118 kts | 107° |
| 2026-04-11 16:26 | 53.46114 | -2.47500 | 989 ft | 103 kts | 112° |
| 2026-04-11 16:26 | 53.46085 | -2.46681 | 971 ft | 110 kts | 107° |
| 2026-04-11 16:26 | 53.46058 | -2.44867 | 923 ft | 117 kts | 114° |
| 2026-04-11 16:27 | 53.46009 | -2.43563 | 969 ft | 126 kts | 77° |
| 2026-04-11 16:27 | 53.46742 | -2.42737 | 998 ft | 131 kts | 20° |
| 2026-04-11 16:27 | 53.47604 | -2.42150 | 972 ft | 134 kts | 24° |
| 2026-04-11 16:27 | 53.48462 | -2.41457 | 918 ft | 140 kts | 27° |
| 2026-04-11 16:28 | 53.48888 | -2.40404 | 842 ft | 88 kts | 111° |
| 2026-04-11 16:28 | 53.48780 | -2.39405 | 675 ft | 87 kts | 122° |
| 2026-04-11 16:28 | 53.48594 | -2.38533 | 601 ft | 67 kts | 146° |
| 2026-04-11 16:28 | 53.48179 | -2.38435 | 450 ft | 64 kts | 195° |
| 2026-04-11 16:29 | 53.47786 | -2.38614 | 216 ft | 56 kts | 194° |
| 2026-04-11 16:29 | 53.47381 | -2.38793 | 107 ft | 55 kts | 194° |
| 2026-04-11 16:29 | 53.47140 | -2.39199 | 77 ft | 70 kts | 248° |
| 2026-04-11 16:29 | 53.46963 | -2.39386 | 89 ft | 32 kts | 172° |
| 2026-04-11 16:30 | 53.46841 | -2.39278 | 86 ft | 4 kts | 208° |
| 2026-04-11 16:30 | 53.46791 | -2.39314 | 84 ft | 5 kts | 306° |
| 2026-04-11 16:30 | 53.46789 | -2.39313 | 79 ft | 0 kts | 309° |
| 2026-04-11 16:30 | 53.46789 | -2.39312 | 79 ft | 0 kts | 304° |